sensor_id;sensor_type;location;lat;lon;timestamp;temperature;humidity
12568;DHT22;6349;50.904;6.136;2023-04-25T00:01:25;8.40;99.90
12568;DHT22;6349;50.904;6.136;2023-04-25T00:03:28;8.40;99.90
12568;DHT22;6349;50.904;6.136;2023-04-25T00:05:30;8.40;99.90
12568;DHT22;6349;50.904;6.136;2023-04-25T00:07:34;8.40;99.90
12568;DHT22;6349;50.904;6.136;2023-04-25T00:09:36;8.40;99.90
12568;DHT22;6349;50.904;6.136;2023-04-25T00:11:37;8.40;99.90
12568;DHT22;6349;50.904;6.136;2023-04-25T00:13:39;8.40;99.90
12568;DHT22;6349;50.904;6.136;2023-04-25T00:15:43;8.40;99.90
12568;DHT22;6349;50.904;6.136;2023-04-25T00:17:45;8.40;99.90
12568;DHT22;6349;50.904;6.136;2023-04-25T00:19:47;8.50;99.90
12568;DHT22;6349;50.904;6.136;2023-04-25T00:21:48;8.50;99.90
12568;DHT22;6349;50.904;6.136;2023-04-25T00:23:52;8.50;99.90
12568;DHT22;6349;50.904;6.136;2023-04-25T00:25:54;8.50;99.90
12568;DHT22;6349;50.904;6.136;2023-04-25T00:27:56;8.40;99.90
12568;DHT22;6349;50.904;6.136;2023-04-25T00:29:58;8.50;99.90
12568;DHT22;6349;50.904;6.136;2023-04-25T00:32:00;8.40;99.90
12568;DHT22;6349;50.904;6.136;2023-04-25T00:34:02;8.40;99.90
12568;DHT22;6349;50.904;6.136;2023-04-25T00:36:04;8.30;99.90
12568;DHT22;6349;50.904;6.136;2023-04-25T00:38:06;8.30;99.90
12568;DHT22;6349;50.904;6.136;2023-04-25T00:40:08;8.30;99.90
12568;DHT22;6349;50.904;6.136;2023-04-25T00:42:11;8.20;99.90
12568;DHT22;6349;50.904;6.136;2023-04-25T00:44:16;8.20;99.90
12568;DHT22;6349;50.904;6.136;2023-04-25T00:46:18;8.20;99.90
12568;DHT22;6349;50.904;6.136;2023-04-25T00:48:22;8.20;99.90
12568;DHT22;6349;50.904;6.136;2023-04-25T00:50:24;8.10;99.90
12568;DHT22;6349;50.904;6.136;2023-04-25T00:52:27;8.10;99.90
12568;DHT22;6349;50.904;6.136;2023-04-25T00:54:29;8.10;99.90
12568;DHT22;6349;50.904;6.136;2023-04-25T00:56:32;8.10;99.90
12568;DHT22;6349;50.904;6.136;2023-04-25T00:58:34;8.10;99.90
12568;DHT22;6349;50.904;6.136;2023-04-25T01:00:36;8.00;99.90
12568;DHT22;6349;50.904;6.136;2023-04-25T01:02:38;8.00;99.90
12568;DHT22;6349;50.904;6.136;2023-04-25T01:04:41;8.00;99.90
12568;DHT22;6349;50.904;6.136;2023-04-25T01:06:43;8.00;99.90
12568;DHT22;6349;50.904;6.136;2023-04-25T01:08:45;8.00;99.90
12568;DHT22;6349;50.904;6.136;2023-04-25T01:10:47;7.90;99.90
12568;DHT22;6349;50.904;6.136;2023-04-25T01:12:49;7.90;99.90
12568;DHT22;6349;50.904;6.136;2023-04-25T01:14:51;7.90;99.90
12568;DHT22;6349;50.904;6.136;2023-04-25T01:16:53;7.90;99.90
12568;DHT22;6349;50.904;6.136;2023-04-25T01:18:56;7.90;99.90
12568;DHT22;6349;50.904;6.136;2023-04-25T01:21:06;7.90;99.90
12568;DHT22;6349;50.904;6.136;2023-04-25T01:23:09;7.90;99.90
12568;DHT22;6349;50.904;6.136;2023-04-25T01:25:11;7.90;99.90
12568;DHT22;6349;50.904;6.136;2023-04-25T01:27:14;7.90;99.90
12568;DHT22;6349;50.904;6.136;2023-04-25T01:29:17;7.80;99.90
12568;DHT22;6349;50.904;6.136;2023-04-25T01:31:19;7.90;99.90
12568;DHT22;6349;50.904;6.136;2023-04-25T01:33:21;7.90;99.90
12568;DHT22;6349;50.904;6.136;2023-04-25T01:35:24;7.80;99.90
12568;DHT22;6349;50.904;6.136;2023-04-25T01:37:26;7.80;99.90
12568;DHT22;6349;50.904;6.136;2023-04-25T01:39:28;7.90;99.90
12568;DHT22;6349;50.904;6.136;2023-04-25T01:41:30;7.90;99.90
12568;DHT22;6349;50.904;6.136;2023-04-25T01:43:32;7.80;99.90
12568;DHT22;6349;50.904;6.136;2023-04-25T01:45:34;7.90;99.90
12568;DHT22;6349;50.904;6.136;2023-04-25T01:47:39;7.80;99.90
12568;DHT22;6349;50.904;6.136;2023-04-25T01:49:45;7.80;99.90
12568;DHT22;6349;50.904;6.136;2023-04-25T01:51:48;7.80;99.90
12568;DHT22;6349;50.904;6.136;2023-04-25T01:53:50;7.80;99.90
12568;DHT22;6349;50.904;6.136;2023-04-25T01:55:52;7.80;99.90
12568;DHT22;6349;50.904;6.136;2023-04-25T01:57:54;7.80;99.90
12568;DHT22;6349;50.904;6.136;2023-04-25T01:59:59;7.80;99.90
12568;DHT22;6349;50.904;6.136;2023-04-25T02:02:00;7.80;99.90
12568;DHT22;6349;50.904;6.136;2023-04-25T02:04:05;7.80;99.90
12568;DHT22;6349;50.904;6.136;2023-04-25T02:06:07;7.80;99.90
12568;DHT22;6349;50.904;6.136;2023-04-25T02:08:09;7.80;99.90
12568;DHT22;6349;50.904;6.136;2023-04-25T02:10:11;7.80;99.90
12568;DHT22;6349;50.904;6.136;2023-04-25T02:12:13;7.90;99.90
12568;DHT22;6349;50.904;6.136;2023-04-25T02:14:15;7.90;99.90
12568;DHT22;6349;50.904;6.136;2023-04-25T02:16:16;7.90;99.90
12568;DHT22;6349;50.904;6.136;2023-04-25T02:18:18;7.80;99.90
12568;DHT22;6349;50.904;6.136;2023-04-25T02:20:22;7.90;99.90
12568;DHT22;6349;50.904;6.136;2023-04-25T02:22:25;7.80;99.90
12568;DHT22;6349;50.904;6.136;2023-04-25T02:24:28;7.80;99.90
12568;DHT22;6349;50.904;6.136;2023-04-25T02:26:30;7.80;99.90
12568;DHT22;6349;50.904;6.136;2023-04-25T02:28:32;7.80;99.90
12568;DHT22;6349;50.904;6.136;2023-04-25T02:30:33;7.80;99.90
12568;DHT22;6349;50.904;6.136;2023-04-25T02:32:37;7.80;99.90
12568;DHT22;6349;50.904;6.136;2023-04-25T02:34:38;7.80;99.90
12568;DHT22;6349;50.904;6.136;2023-04-25T02:36:41;7.80;99.90
12568;DHT22;6349;50.904;6.136;2023-04-25T02:38:42;7.70;99.90
12568;DHT22;6349;50.904;6.136;2023-04-25T02:40:44;7.70;99.90
12568;DHT22;6349;50.904;6.136;2023-04-25T02:42:46;7.70;99.90
12568;DHT22;6349;50.904;6.136;2023-04-25T02:44:49;7.70;99.90
12568;DHT22;6349;50.904;6.136;2023-04-25T02:46:51;7.70;99.90
12568;DHT22;6349;50.904;6.136;2023-04-25T02:48:52;7.70;99.90
12568;DHT22;6349;50.904;6.136;2023-04-25T02:50:54;7.70;99.90
12568;DHT22;6349;50.904;6.136;2023-04-25T02:52:56;7.70;99.90
12568;DHT22;6349;50.904;6.136;2023-04-25T02:54:58;7.70;99.90
12568;DHT22;6349;50.904;6.136;2023-04-25T02:57:00;7.70;99.90
12568;DHT22;6349;50.904;6.136;2023-04-25T02:59:02;7.60;99.90
12568;DHT22;6349;50.904;6.136;2023-04-25T03:01:04;7.60;99.90
12568;DHT22;6349;50.904;6.136;2023-04-25T03:03:06;7.60;99.90
12568;DHT22;6349;50.904;6.136;2023-04-25T03:05:07;7.60;99.90
12568;DHT22;6349;50.904;6.136;2023-04-25T03:07:09;7.60;99.90
12568;DHT22;6349;50.904;6.136;2023-04-25T03:09:11;7.60;99.90
12568;DHT22;6349;50.904;6.136;2023-04-25T03:11:13;7.60;99.90
12568;DHT22;6349;50.904;6.136;2023-04-25T03:13:15;7.60;99.90
12568;DHT22;6349;50.904;6.136;2023-04-25T03:15:16;7.60;99.90
12568;DHT22;6349;50.904;6.136;2023-04-25T03:17:18;7.50;99.90
12568;DHT22;6349;50.904;6.136;2023-04-25T03:19:20;7.50;99.90
12568;DHT22;6349;50.904;6.136;2023-04-25T03:21:22;7.50;99.90
12568;DHT22;6349;50.904;6.136;2023-04-25T03:23:24;7.50;99.90
12568;DHT22;6349;50.904;6.136;2023-04-25T03:25:26;7.50;99.90
12568;DHT22;6349;50.904;6.136;2023-04-25T03:27:29;7.50;99.90
12568;DHT22;6349;50.904;6.136;2023-04-25T03:29:31;7.50;99.90
12568;DHT22;6349;50.904;6.136;2023-04-25T03:31:32;7.50;99.90
12568;DHT22;6349;50.904;6.136;2023-04-25T03:33:34;7.40;99.90
12568;DHT22;6349;50.904;6.136;2023-04-25T03:35:36;7.40;99.90
12568;DHT22;6349;50.904;6.136;2023-04-25T03:37:38;7.40;99.90
12568;DHT22;6349;50.904;6.136;2023-04-25T03:39:39;7.40;99.90
12568;DHT22;6349;50.904;6.136;2023-04-25T03:41:41;7.40;99.90
12568;DHT22;6349;50.904;6.136;2023-04-25T03:43:43;7.40;99.90
12568;DHT22;6349;50.904;6.136;2023-04-25T03:45:45;7.40;99.90
12568;DHT22;6349;50.904;6.136;2023-04-25T03:47:46;7.40;99.90
12568;DHT22;6349;50.904;6.136;2023-04-25T03:49:48;7.40;99.90
12568;DHT22;6349;50.904;6.136;2023-04-25T03:51:51;7.40;99.90
12568;DHT22;6349;50.904;6.136;2023-04-25T03:53:53;7.40;99.90
12568;DHT22;6349;50.904;6.136;2023-04-25T03:55:55;7.40;99.90
12568;DHT22;6349;50.904;6.136;2023-04-25T03:57:58;7.40;99.90
12568;DHT22;6349;50.904;6.136;2023-04-25T03:59:59;7.40;99.90
12568;DHT22;6349;50.904;6.136;2023-04-25T04:02:01;7.40;99.90
12568;DHT22;6349;50.904;6.136;2023-04-25T04:04:03;7.40;99.90
12568;DHT22;6349;50.904;6.136;2023-04-25T04:06:05;7.40;99.90
12568;DHT22;6349;50.904;6.136;2023-04-25T04:08:07;7.40;99.90
12568;DHT22;6349;50.904;6.136;2023-04-25T04:10:10;7.40;99.90
12568;DHT22;6349;50.904;6.136;2023-04-25T04:12:12;7.40;99.90
12568;DHT22;6349;50.904;6.136;2023-04-25T04:14:14;7.40;99.90
12568;DHT22;6349;50.904;6.136;2023-04-25T04:16:17;7.40;99.90
12568;DHT22;6349;50.904;6.136;2023-04-25T04:18:20;7.40;99.90
12568;DHT22;6349;50.904;6.136;2023-04-25T04:20:21;7.40;99.90
12568;DHT22;6349;50.904;6.136;2023-04-25T04:22:24;7.40;99.90
12568;DHT22;6349;50.904;6.136;2023-04-25T04:24:26;7.40;99.90
12568;DHT22;6349;50.904;6.136;2023-04-25T04:26:26;7.40;99.90
12568;DHT22;6349;50.904;6.136;2023-04-25T04:28:28;7.40;99.90
12568;DHT22;6349;50.904;6.136;2023-04-25T04:30:31;7.40;99.90
12568;DHT22;6349;50.904;6.136;2023-04-25T04:32:34;7.40;99.90
12568;DHT22;6349;50.904;6.136;2023-04-25T04:34:39;7.40;99.90
12568;DHT22;6349;50.904;6.136;2023-04-25T04:36:40;7.40;99.90
12568;DHT22;6349;50.904;6.136;2023-04-25T04:38:42;7.40;99.90
12568;DHT22;6349;50.904;6.136;2023-04-25T04:40:44;7.40;99.90
12568;DHT22;6349;50.904;6.136;2023-04-25T04:42:46;7.30;99.90
12568;DHT22;6349;50.904;6.136;2023-04-25T04:44:48;7.30;99.90
12568;DHT22;6349;50.904;6.136;2023-04-25T04:46:50;7.30;99.90
12568;DHT22;6349;50.904;6.136;2023-04-25T04:48:52;7.30;99.90
12568;DHT22;6349;50.904;6.136;2023-04-25T04:50:54;7.30;99.90
12568;DHT22;6349;50.904;6.136;2023-04-25T04:52:56;7.30;99.90
12568;DHT22;6349;50.904;6.136;2023-04-25T04:54:58;7.40;99.90
12568;DHT22;6349;50.904;6.136;2023-04-25T04:57:00;7.40;99.90
12568;DHT22;6349;50.904;6.136;2023-04-25T04:59:02;7.30;99.90
12568;DHT22;6349;50.904;6.136;2023-04-25T05:01:04;7.40;99.90
12568;DHT22;6349;50.904;6.136;2023-04-25T05:03:06;7.40;99.90
12568;DHT22;6349;50.904;6.136;2023-04-25T05:05:09;7.40;99.90
12568;DHT22;6349;50.904;6.136;2023-04-25T05:07:11;7.40;99.90
12568;DHT22;6349;50.904;6.136;2023-04-25T05:09:13;7.50;99.90
12568;DHT22;6349;50.904;6.136;2023-04-25T05:11:14;7.50;99.90
12568;DHT22;6349;50.904;6.136;2023-04-25T05:13:16;7.50;99.90
12568;DHT22;6349;50.904;6.136;2023-04-25T05:15:18;7.50;99.90
12568;DHT22;6349;50.904;6.136;2023-04-25T05:17:19;7.50;99.90
12568;DHT22;6349;50.904;6.136;2023-04-25T05:19:21;7.50;99.90
12568;DHT22;6349;50.904;6.136;2023-04-25T05:21:23;7.50;99.90
12568;DHT22;6349;50.904;6.136;2023-04-25T05:23:25;7.50;99.90
12568;DHT22;6349;50.904;6.136;2023-04-25T05:25:29;7.50;99.90
12568;DHT22;6349;50.904;6.136;2023-04-25T05:27:31;7.50;99.90
12568;DHT22;6349;50.904;6.136;2023-04-25T05:29:32;7.50;99.90
12568;DHT22;6349;50.904;6.136;2023-04-25T05:31:36;7.40;99.90
12568;DHT22;6349;50.904;6.136;2023-04-25T05:33:36;7.40;99.90
12568;DHT22;6349;50.904;6.136;2023-04-25T05:35:38;7.40;99.90
12568;DHT22;6349;50.904;6.136;2023-04-25T05:37:40;7.40;99.90
12568;DHT22;6349;50.904;6.136;2023-04-25T05:39:41;7.50;99.90
12568;DHT22;6349;50.904;6.136;2023-04-25T05:41:43;7.50;99.90
12568;DHT22;6349;50.904;6.136;2023-04-25T05:43:45;7.50;99.90
12568;DHT22;6349;50.904;6.136;2023-04-25T05:45:49;7.50;99.90
12568;DHT22;6349;50.904;6.136;2023-04-25T05:47:52;7.50;99.90
12568;DHT22;6349;50.904;6.136;2023-04-25T05:49:54;7.50;99.90
12568;DHT22;6349;50.904;6.136;2023-04-25T05:51:56;7.60;99.90
12568;DHT22;6349;50.904;6.136;2023-04-25T05:53:58;7.50;99.90
12568;DHT22;6349;50.904;6.136;2023-04-25T05:55:59;7.60;99.90
12568;DHT22;6349;50.904;6.136;2023-04-25T05:58:01;7.60;99.90
12568;DHT22;6349;50.904;6.136;2023-04-25T06:00:03;7.60;99.90
12568;DHT22;6349;50.904;6.136;2023-04-25T06:02:10;7.70;99.90
12568;DHT22;6349;50.904;6.136;2023-04-25T06:04:12;7.70;99.90
12568;DHT22;6349;50.904;6.136;2023-04-25T06:06:14;7.70;99.90
12568;DHT22;6349;50.904;6.136;2023-04-25T06:08:17;7.80;99.90
12568;DHT22;6349;50.904;6.136;2023-04-25T06:10:19;7.80;99.90
12568;DHT22;6349;50.904;6.136;2023-04-25T06:12:20;7.80;99.90
12568;DHT22;6349;50.904;6.136;2023-04-25T06:14:22;7.80;99.90
12568;DHT22;6349;50.904;6.136;2023-04-25T06:16:24;7.80;99.90
12568;DHT22;6349;50.904;6.136;2023-04-25T06:18:27;7.80;99.90
12568;DHT22;6349;50.904;6.136;2023-04-25T06:20:29;7.80;99.90
12568;DHT22;6349;50.904;6.136;2023-04-25T06:22:31;7.80;99.90
12568;DHT22;6349;50.904;6.136;2023-04-25T06:24:32;7.80;99.90
12568;DHT22;6349;50.904;6.136;2023-04-25T06:26:34;7.80;99.90
12568;DHT22;6349;50.904;6.136;2023-04-25T06:28:36;7.80;99.90
12568;DHT22;6349;50.904;6.136;2023-04-25T06:30:38;7.80;99.90
12568;DHT22;6349;50.904;6.136;2023-04-25T06:32:40;7.80;99.90
12568;DHT22;6349;50.904;6.136;2023-04-25T06:34:42;7.80;99.90
12568;DHT22;6349;50.904;6.136;2023-04-25T06:36:42;7.90;99.90
12568;DHT22;6349;50.904;6.136;2023-04-25T06:38:46;7.90;99.90
12568;DHT22;6349;50.904;6.136;2023-04-25T06:40:48;8.00;99.90
12568;DHT22;6349;50.904;6.136;2023-04-25T06:42:49;8.10;99.90
12568;DHT22;6349;50.904;6.136;2023-04-25T06:44:51;8.10;99.90
12568;DHT22;6349;50.904;6.136;2023-04-25T06:46:53;8.10;99.90
12568;DHT22;6349;50.904;6.136;2023-04-25T06:48:55;8.10;99.90
12568;DHT22;6349;50.904;6.136;2023-04-25T06:50:57;8.10;99.90
12568;DHT22;6349;50.904;6.136;2023-04-25T06:52:59;8.10;99.90
12568;DHT22;6349;50.904;6.136;2023-04-25T06:55:03;8.10;99.90
12568;DHT22;6349;50.904;6.136;2023-04-25T06:57:06;8.10;99.90
12568;DHT22;6349;50.904;6.136;2023-04-25T06:59:08;8.20;99.90
12568;DHT22;6349;50.904;6.136;2023-04-25T07:01:10;8.30;99.90
12568;DHT22;6349;50.904;6.136;2023-04-25T07:03:12;8.30;99.90
12568;DHT22;6349;50.904;6.136;2023-04-25T07:05:14;8.30;99.90
12568;DHT22;6349;50.904;6.136;2023-04-25T07:07:16;8.30;99.90
12568;DHT22;6349;50.904;6.136;2023-04-25T07:09:18;8.30;99.90
12568;DHT22;6349;50.904;6.136;2023-04-25T07:11:20;8.20;99.90
12568;DHT22;6349;50.904;6.136;2023-04-25T07:13:22;8.30;99.90
12568;DHT22;6349;50.904;6.136;2023-04-25T07:15:24;8.30;99.90
12568;DHT22;6349;50.904;6.136;2023-04-25T07:17:26;8.40;99.90
12568;DHT22;6349;50.904;6.136;2023-04-25T07:19:28;8.30;99.90
12568;DHT22;6349;50.904;6.136;2023-04-25T07:21:31;8.30;99.90
12568;DHT22;6349;50.904;6.136;2023-04-25T07:23:33;8.30;99.90
12568;DHT22;6349;50.904;6.136;2023-04-25T07:25:35;8.40;99.90
12568;DHT22;6349;50.904;6.136;2023-04-25T07:27:37;8.40;99.90
12568;DHT22;6349;50.904;6.136;2023-04-25T07:29:38;8.40;99.90
12568;DHT22;6349;50.904;6.136;2023-04-25T07:31:41;8.50;99.90
12568;DHT22;6349;50.904;6.136;2023-04-25T07:33:43;8.50;99.90
12568;DHT22;6349;50.904;6.136;2023-04-25T07:35:45;8.50;99.90
12568;DHT22;6349;50.904;6.136;2023-04-25T07:37:45;8.50;99.90
12568;DHT22;6349;50.904;6.136;2023-04-25T07:39:47;8.50;99.90
12568;DHT22;6349;50.904;6.136;2023-04-25T07:41:49;8.50;99.90
12568;DHT22;6349;50.904;6.136;2023-04-25T07:43:55;8.50;99.90
12568;DHT22;6349;50.904;6.136;2023-04-25T07:45:57;8.50;99.90
12568;DHT22;6349;50.904;6.136;2023-04-25T07:47:59;8.50;99.90
12568;DHT22;6349;50.904;6.136;2023-04-25T07:50:00;8.60;99.90
12568;DHT22;6349;50.904;6.136;2023-04-25T07:52:03;8.50;99.90
12568;DHT22;6349;50.904;6.136;2023-04-25T07:54:05;8.60;99.90
12568;DHT22;6349;50.904;6.136;2023-04-25T07:56:08;8.60;99.90
12568;DHT22;6349;50.904;6.136;2023-04-25T07:58:11;8.70;99.90
12568;DHT22;6349;50.904;6.136;2023-04-25T08:00:13;8.70;99.90
12568;DHT22;6349;50.904;6.136;2023-04-25T08:02:16;8.70;99.90
12568;DHT22;6349;50.904;6.136;2023-04-25T08:04:18;8.80;99.90
12568;DHT22;6349;50.904;6.136;2023-04-25T08:06:20;8.70;99.90
12568;DHT22;6349;50.904;6.136;2023-04-25T08:08:22;8.70;99.90
12568;DHT22;6349;50.904;6.136;2023-04-25T08:10:24;8.70;99.90
12568;DHT22;6349;50.904;6.136;2023-04-25T08:12:26;8.60;99.90
12568;DHT22;6349;50.904;6.136;2023-04-25T08:14:28;8.70;99.90
12568;DHT22;6349;50.904;6.136;2023-04-25T08:16:32;8.60;99.90
12568;DHT22;6349;50.904;6.136;2023-04-25T08:18:34;8.60;99.90
12568;DHT22;6349;50.904;6.136;2023-04-25T08:20:36;8.70;99.90
12568;DHT22;6349;50.904;6.136;2023-04-25T08:22:37;8.70;99.90
12568;DHT22;6349;50.904;6.136;2023-04-25T08:24:39;8.70;99.90
12568;DHT22;6349;50.904;6.136;2023-04-25T08:26:41;8.70;99.90
12568;DHT22;6349;50.904;6.136;2023-04-25T08:28:43;8.80;99.90
12568;DHT22;6349;50.904;6.136;2023-04-25T08:30:45;8.80;99.90
12568;DHT22;6349;50.904;6.136;2023-04-25T08:32:46;8.90;99.90
12568;DHT22;6349;50.904;6.136;2023-04-25T08:34:47;8.90;99.90
12568;DHT22;6349;50.904;6.136;2023-04-25T08:36:48;8.90;99.90
12568;DHT22;6349;50.904;6.136;2023-04-25T08:38:50;8.90;99.90
12568;DHT22;6349;50.904;6.136;2023-04-25T08:40:51;8.90;99.90
12568;DHT22;6349;50.904;6.136;2023-04-25T08:42:54;9.00;99.90
12568;DHT22;6349;50.904;6.136;2023-04-25T08:44:57;9.10;99.90
12568;DHT22;6349;50.904;6.136;2023-04-25T08:47:04;9.10;99.90
12568;DHT22;6349;50.904;6.136;2023-04-25T08:49:07;9.20;99.90
12568;DHT22;6349;50.904;6.136;2023-04-25T08:51:10;9.20;99.90
12568;DHT22;6349;50.904;6.136;2023-04-25T08:53:16;9.30;99.90
12568;DHT22;6349;50.904;6.136;2023-04-25T08:55:21;9.30;99.90
12568;DHT22;6349;50.904;6.136;2023-04-25T08:57:23;9.40;99.90
12568;DHT22;6349;50.904;6.136;2023-04-25T08:59:25;9.40;99.90
12568;DHT22;6349;50.904;6.136;2023-04-25T09:01:28;9.50;99.90
12568;DHT22;6349;50.904;6.136;2023-04-25T09:03:30;9.50;99.90
12568;DHT22;6349;50.904;6.136;2023-04-25T09:05:36;9.50;99.90
12568;DHT22;6349;50.904;6.136;2023-04-25T09:07:38;9.50;99.90
12568;DHT22;6349;50.904;6.136;2023-04-25T09:09:39;9.40;99.90
12568;DHT22;6349;50.904;6.136;2023-04-25T09:11:40;9.40;99.90
12568;DHT22;6349;50.904;6.136;2023-04-25T09:13:43;9.40;99.90
12568;DHT22;6349;50.904;6.136;2023-04-25T09:15:56;9.30;99.90
12568;DHT22;6349;50.904;6.136;2023-04-25T09:17:59;9.30;99.90
12568;DHT22;6349;50.904;6.136;2023-04-25T09:20:12;9.20;99.90
12568;DHT22;6349;50.904;6.136;2023-04-25T09:22:14;9.20;99.90
12568;DHT22;6349;50.904;6.136;2023-04-25T09:24:40;9.20;99.90
12568;DHT22;6349;50.904;6.136;2023-04-25T09:26:43;9.10;99.90
12568;DHT22;6349;50.904;6.136;2023-04-25T09:28:45;9.20;99.90
12568;DHT22;6349;50.904;6.136;2023-04-25T09:30:49;9.20;99.90
12568;DHT22;6349;50.904;6.136;2023-04-25T09:32:51;9.20;99.90
12568;DHT22;6349;50.904;6.136;2023-04-25T09:34:58;9.30;99.90
12568;DHT22;6349;50.904;6.136;2023-04-25T09:37:01;9.30;99.90
12568;DHT22;6349;50.904;6.136;2023-04-25T09:39:12;9.30;99.90
12568;DHT22;6349;50.904;6.136;2023-04-25T09:41:23;9.20;99.90
12568;DHT22;6349;50.904;6.136;2023-04-25T09:43:25;9.20;99.90
12568;DHT22;6349;50.904;6.136;2023-04-25T09:45:29;9.20;99.90
12568;DHT22;6349;50.904;6.136;2023-04-25T09:47:37;9.30;99.90
12568;DHT22;6349;50.904;6.136;2023-04-25T09:49:43;9.20;99.90
12568;DHT22;6349;50.904;6.136;2023-04-25T09:51:58;9.30;99.90
12568;DHT22;6349;50.904;6.136;2023-04-25T09:54:00;9.30;99.90
12568;DHT22;6349;50.904;6.136;2023-04-25T09:56:04;9.30;99.90
12568;DHT22;6349;50.904;6.136;2023-04-25T09:58:08;9.40;99.90
12568;DHT22;6349;50.904;6.136;2023-04-25T10:00:12;9.50;99.90
12568;DHT22;6349;50.904;6.136;2023-04-25T10:02:22;9.50;99.90
12568;DHT22;6349;50.904;6.136;2023-04-25T10:04:27;9.50;99.90
12568;DHT22;6349;50.904;6.136;2023-04-25T10:06:30;9.60;99.90
12568;DHT22;6349;50.904;6.136;2023-04-25T10:08:35;9.70;99.90
12568;DHT22;6349;50.904;6.136;2023-04-25T10:10:38;9.70;99.90
12568;DHT22;6349;50.904;6.136;2023-04-25T10:12:42;9.70;99.90
12568;DHT22;6349;50.904;6.136;2023-04-25T10:14:45;9.80;99.90
12568;DHT22;6349;50.904;6.136;2023-04-25T10:16:48;9.80;99.90
12568;DHT22;6349;50.904;6.136;2023-04-25T10:18:50;9.80;99.90
12568;DHT22;6349;50.904;6.136;2023-04-25T10:20:56;9.90;99.90
12568;DHT22;6349;50.904;6.136;2023-04-25T10:23:06;9.90;99.90
12568;DHT22;6349;50.904;6.136;2023-04-25T10:25:10;9.90;99.90
12568;DHT22;6349;50.904;6.136;2023-04-25T10:27:13;9.90;99.90
12568;DHT22;6349;50.904;6.136;2023-04-25T10:29:22;10.00;99.90
12568;DHT22;6349;50.904;6.136;2023-04-25T10:31:25;10.00;99.90
12568;DHT22;6349;50.904;6.136;2023-04-25T10:33:40;10.10;99.90
12568;DHT22;6349;50.904;6.136;2023-04-25T10:35:45;10.20;99.90
12568;DHT22;6349;50.904;6.136;2023-04-25T10:38:10;10.20;99.90
12568;DHT22;6349;50.904;6.136;2023-04-25T10:40:12;10.30;99.90
12568;DHT22;6349;50.904;6.136;2023-04-25T10:42:14;10.40;99.90
12568;DHT22;6349;50.904;6.136;2023-04-25T10:44:16;10.60;99.90
12568;DHT22;6349;50.904;6.136;2023-04-25T10:46:29;10.70;99.90
12568;DHT22;6349;50.904;6.136;2023-04-25T10:48:34;10.70;99.90
12568;DHT22;6349;50.904;6.136;2023-04-25T10:50:39;10.60;99.90
12568;DHT22;6349;50.904;6.136;2023-04-25T10:52:41;10.50;99.90
12568;DHT22;6349;50.904;6.136;2023-04-25T10:54:56;10.30;99.90
12568;DHT22;6349;50.904;6.136;2023-04-25T10:56:58;10.20;99.90
12568;DHT22;6349;50.904;6.136;2023-04-25T11:01:12;9.90;99.90
12568;DHT22;6349;50.904;6.136;2023-04-25T11:03:16;9.80;99.90
12568;DHT22;6349;50.904;6.136;2023-04-25T11:05:26;9.70;99.90
12568;DHT22;6349;50.904;6.136;2023-04-25T11:07:44;9.60;99.90
12568;DHT22;6349;50.904;6.136;2023-04-25T11:09:50;9.60;99.90
12568;DHT22;6349;50.904;6.136;2023-04-25T11:11:58;9.50;99.90
12568;DHT22;6349;50.904;6.136;2023-04-25T11:14:00;9.60;99.90
12568;DHT22;6349;50.904;6.136;2023-04-25T11:16:02;9.50;99.90
12568;DHT22;6349;50.904;6.136;2023-04-25T11:18:04;9.50;99.90
12568;DHT22;6349;50.904;6.136;2023-04-25T11:20:07;9.50;99.90
12568;DHT22;6349;50.904;6.136;2023-04-25T11:22:12;9.50;99.90
12568;DHT22;6349;50.904;6.136;2023-04-25T11:24:16;9.60;99.90
12568;DHT22;6349;50.904;6.136;2023-04-25T11:26:19;9.70;99.90
12568;DHT22;6349;50.904;6.136;2023-04-25T11:28:22;9.70;99.90
12568;DHT22;6349;50.904;6.136;2023-04-25T11:30:25;9.80;99.90
12568;DHT22;6349;50.904;6.136;2023-04-25T11:32:27;9.80;99.90
12568;DHT22;6349;50.904;6.136;2023-04-25T11:34:33;9.90;99.90
12568;DHT22;6349;50.904;6.136;2023-04-25T11:36:37;10.00;99.90
12568;DHT22;6349;50.904;6.136;2023-04-25T11:38:40;10.10;99.90
12568;DHT22;6349;50.904;6.136;2023-04-25T11:40:42;10.10;99.90
12568;DHT22;6349;50.904;6.136;2023-04-25T11:42:47;10.20;99.90
12568;DHT22;6349;50.904;6.136;2023-04-25T11:44:49;10.20;99.90
12568;DHT22;6349;50.904;6.136;2023-04-25T11:46:51;10.20;99.90
12568;DHT22;6349;50.904;6.136;2023-04-25T11:48:55;10.20;99.90
12568;DHT22;6349;50.904;6.136;2023-04-25T11:51:00;10.20;99.90
12568;DHT22;6349;50.904;6.136;2023-04-25T11:53:01;10.30;99.90
12568;DHT22;6349;50.904;6.136;2023-04-25T11:55:23;10.20;99.90
12568;DHT22;6349;50.904;6.136;2023-04-25T11:57:25;10.30;99.90
12568;DHT22;6349;50.904;6.136;2023-04-25T11:59:27;10.40;99.90
12568;DHT22;6349;50.904;6.136;2023-04-25T12:01:33;10.40;99.90
12568;DHT22;6349;50.904;6.136;2023-04-25T12:03:45;10.40;99.90
12568;DHT22;6349;50.904;6.136;2023-04-25T12:05:47;10.50;99.90
12568;DHT22;6349;50.904;6.136;2023-04-25T12:07:49;10.60;99.90
12568;DHT22;6349;50.904;6.136;2023-04-25T12:09:51;10.80;99.90
12568;DHT22;6349;50.904;6.136;2023-04-25T12:11:56;10.90;99.90
12568;DHT22;6349;50.904;6.136;2023-04-25T12:14:04;11.00;99.90
12568;DHT22;6349;50.904;6.136;2023-04-25T12:16:07;11.10;99.90
12568;DHT22;6349;50.904;6.136;2023-04-25T12:18:09;11.30;99.90
12568;DHT22;6349;50.904;6.136;2023-04-25T12:20:13;11.40;99.90
12568;DHT22;6349;50.904;6.136;2023-04-25T12:22:23;11.50;99.90
12568;DHT22;6349;50.904;6.136;2023-04-25T12:24:26;11.60;99.90
12568;DHT22;6349;50.904;6.136;2023-04-25T12:26:48;11.50;99.90
12568;DHT22;6349;50.904;6.136;2023-04-25T12:28:50;11.40;99.90
12568;DHT22;6349;50.904;6.136;2023-04-25T12:32:54;11.20;99.90
12568;DHT22;6349;50.904;6.136;2023-04-25T12:34:56;11.20;99.90
12568;DHT22;6349;50.904;6.136;2023-04-25T12:36:58;11.10;99.90
12568;DHT22;6349;50.904;6.136;2023-04-25T12:39:00;11.00;99.90
12568;DHT22;6349;50.904;6.136;2023-04-25T12:41:05;11.00;99.90
12568;DHT22;6349;50.904;6.136;2023-04-25T12:43:07;11.00;99.90
12568;DHT22;6349;50.904;6.136;2023-04-25T12:45:09;11.30;99.90
12568;DHT22;6349;50.904;6.136;2023-04-25T12:47:11;11.30;99.90
12568;DHT22;6349;50.904;6.136;2023-04-25T12:49:13;11.40;99.90
12568;DHT22;6349;50.904;6.136;2023-04-25T12:51:15;11.40;99.90
12568;DHT22;6349;50.904;6.136;2023-04-25T12:53:21;11.40;99.90
12568;DHT22;6349;50.904;6.136;2023-04-25T12:55:25;11.50;99.90
12568;DHT22;6349;50.904;6.136;2023-04-25T12:57:27;11.70;99.90
12568;DHT22;6349;50.904;6.136;2023-04-25T12:59:29;11.80;99.90
12568;DHT22;6349;50.904;6.136;2023-04-25T13:01:31;11.70;99.90
12568;DHT22;6349;50.904;6.136;2023-04-25T13:03:33;11.70;99.90
12568;DHT22;6349;50.904;6.136;2023-04-25T13:05:36;11.60;99.90
12568;DHT22;6349;50.904;6.136;2023-04-25T13:07:38;11.60;99.90
12568;DHT22;6349;50.904;6.136;2023-04-25T13:09:39;11.60;99.90
12568;DHT22;6349;50.904;6.136;2023-04-25T13:11:41;11.60;99.90
12568;DHT22;6349;50.904;6.136;2023-04-25T13:13:44;11.60;99.90
12568;DHT22;6349;50.904;6.136;2023-04-25T13:15:46;11.60;99.90
12568;DHT22;6349;50.904;6.136;2023-04-25T13:17:47;11.50;99.90
12568;DHT22;6349;50.904;6.136;2023-04-25T13:19:48;11.40;99.90
12568;DHT22;6349;50.904;6.136;2023-04-25T13:21:50;11.30;99.90
12568;DHT22;6349;50.904;6.136;2023-04-25T13:23:52;11.20;99.90
12568;DHT22;6349;50.904;6.136;2023-04-25T13:25:54;11.00;99.90